Time;durP1;ratioP1;P1;durP2;ratioP2;P2;SDS_P1;SDS_P2;PMS_P1;PMS_P2;Temp;Humidity;BMP_temperature;BMP_pressure;BME280_temperature;BME280_humidity;BME280_pressure;Samples;Min_cycle;Max_cycle;Signal;HPM_P1;HPM_P2
2024/04/12 00:01:15;;;;;;;0.47;0.47;;;14.50;99.90;;;;;;4435578;32;20427;-63
2024/04/12 00:03:41;;;;;;;0.75;0.50;;;14.50;99.90;;;;;;4430177;32;20090;-63
2024/04/12 00:06:16;;;;;;;0.50;0.40;;;14.50;99.90;;;;;;4437338;32;20437;-63
2024/04/12 00:08:46;;;;;;;0.40;0.40;;;14.50;99.90;;;;;;4427247;32;20081;-63
2024/04/12 00:11:16;;;;;;;11.20;0.57;;;14.40;99.90;;;;;;4426360;32;20077;-62
2024/04/12 00:13:44;;;;;;;0.40;0.40;;;14.40;99.90;;;;;;4428764;32;20053;-62
2024/04/12 00:16:10;;;;;;;0.40;0.40;;;14.40;99.90;;;;;;4437258;32;20283;-63
2024/04/12 00:18:37;;;;;;;0.40;0.40;;;14.50;99.90;;;;;;4430318;32;20639;-63
2024/04/12 00:21:05;;;;;;;0.40;0.40;;;14.50;99.90;;;;;;4430194;32;20076;-63
2024/04/12 00:23:32;;;;;;;0.40;0.40;;;14.40;99.90;;;;;;4428416;32;20082;-62
2024/04/12 00:26:00;;;;;;;0.25;0.25;;;14.40;99.90;;;;;;4437490;32;20081;-62
2024/04/12 00:28:34;;;;;;;0.37;0.37;;;14.30;99.90;;;;;;4430009;32;20065;-62
2024/04/12 00:31:00;;;;;;;0.30;0.30;;;14.30;99.90;;;;;;4427668;32;20060;-62
2024/04/12 00:33:31;;;;;;;2.25;0.60;;;14.40;99.90;;;;;;4437802;32;20543;-63
2024/04/12 00:36:24;;;;;;;0.40;0.40;;;14.30;99.90;;;;;;4428343;32;20069;-62
2024/04/12 00:38:48;;;;;;;0.30;0.30;;;14.30;99.90;;;;;;4429570;32;20090;-62
2024/04/12 00:41:15;;;;;;;0.30;0.30;;;14.40;99.90;;;;;;4437001;32;20077;-62
2024/04/12 00:43:45;;;;;;;1.95;1.17;;;14.30;99.90;;;;;;4437425;32;20073;-62
2024/04/12 00:46:19;;;;;;;1.15;0.60;;;14.30;99.90;;;;;;4427073;32;20085;-62
2024/04/12 00:48:46;;;;;;;0.50;0.50;;;14.30;99.90;;;;;;4425378;32;20573;-62
2024/04/12 00:51:16;;;;;;;0.45;0.45;;;14.30;99.90;;;;;;4429332;32;20116;-62
2024/04/12 00:53:46;;;;;;;0.50;0.50;;;14.30;99.90;;;;;;4418274;32;20077;-62
2024/04/12 00:56:14;;;;;;;0.60;0.60;;;14.40;99.90;;;;;;4437507;32;20879;-63
2024/04/12 00:58:42;;;;;;;0.35;0.30;;;14.40;99.90;;;;;;4437188;32;20089;-62
2024/04/12 01:01:16;;;;;;;0.45;0.45;;;14.30;99.90;;;;;;4437781;32;20536;-62
2024/04/12 01:03:47;;;;;;;2.90;0.80;;;14.30;99.90;;;;;;4417459;32;20069;-62
2024/04/12 01:06:17;;;;;;;6.55;0.45;;;14.30;99.90;;;;;;4438212;32;20082;-62
2024/04/12 01:08:44;;;;;;;0.47;0.47;;;14.40;99.90;;;;;;4430233;32;20062;-63
2024/04/12 01:11:11;;;;;;;0.30;0.30;;;14.30;99.90;;;;;;4421169;32;20189;-63
2024/04/12 01:13:37;;;;;;;0.47;0.47;;;14.30;99.90;;;;;;4436893;32;20138;-63
2024/04/12 01:16:05;;;;;;;0.80;0.75;;;14.30;99.90;;;;;;4437944;32;20101;-62
2024/04/12 01:18:32;;;;;;;0.62;0.60;;;14.30;99.90;;;;;;4428791;32;20432;-62
2024/04/12 01:21:00;;;;;;;1.45;1.08;;;14.30;99.90;;;;;;4436697;32;20119;-62
2024/04/12 01:23:27;;;;;;;0.40;0.40;;;14.30;99.90;;;;;;4439449;32;20049;-62
2024/04/12 01:25:56;;;;;;;1.17;1.08;;;14.20;99.90;;;;;;4439778;32;20069;-62
2024/04/12 01:28:22;;;;;;;0.40;0.40;;;14.10;99.90;;;;;;4440174;32;20147;-62
2024/04/12 01:30:48;;;;;;;7.43;0.88;;;14.10;99.90;;;;;;4430353;32;20539;-63
2024/04/12 01:33:13;;;;;;;0.50;0.50;;;14.20;99.90;;;;;;4430464;32;20156;-63
2024/04/12 01:35:42;;;;;;;0.50;0.50;;;14.20;99.90;;;;;;4441595;32;20085;-63
2024/04/12 01:38:18;;;;;;;1.12;0.85;;;14.20;99.90;;;;;;4429042;32;21394;-64
2024/04/12 01:40:46;;;;;;;0.30;0.30;;;14.20;99.90;;;;;;4442211;32;20072;-64
2024/04/12 01:43:12;;;;;;;0.40;0.40;;;14.30;99.90;;;;;;4438779;32;20056;-63
2024/04/12 01:45:39;;;;;;;0.80;0.65;;;14.30;99.90;;;;;;4429958;32;20093;-63
2024/04/12 01:48:06;;;;;;;0.40;0.40;;;14.20;99.90;;;;;;4438044;32;20150;-64
2024/04/12 01:50:34;;;;;;;0.40;0.40;;;14.20;99.90;;;;;;4438968;32;20155;-62
2024/04/12 01:53:09;;;;;;;1.55;0.57;;;14.30;99.90;;;;;;4438391;32;20061;-62
2024/04/12 01:55:39;;;;;;;0.30;0.30;;;14.30;99.90;;;;;;4438190;32;20124;-62
2024/04/12 01:58:05;;;;;;;0.35;0.35;;;14.30;99.90;;;;;;4428389;32;20066;-63
2024/04/12 02:00:33;;;;;;;0.65;0.65;;;14.30;99.90;;;;;;4432598;32;20093;-62
2024/04/12 02:02:59;;;;;;;0.37;0.37;;;14.20;99.90;;;;;;4440184;32;20069;-63
2024/04/12 02:05:32;;;;;;;4.47;0.65;;;14.20;99.90;;;;;;4429008;32;20073;-63
2024/04/12 02:08:03;;;;;;;0.32;0.32;;;14.20;99.90;;;;;;4438712;32;20057;-63
2024/04/12 02:10:29;;;;;;;0.60;0.60;;;14.20;99.90;;;;;;4432330;32;20081;-64
2024/04/12 02:12:55;;;;;;;3.33;0.60;;;14.20;99.90;;;;;;4429713;32;20065;-62
2024/04/12 02:15:23;;;;;;;5.45;0.85;;;14.20;99.90;;;;;;4438627;32;20088;-62
2024/04/12 02:17:57;;;;;;;0.68;0.68;;;14.20;99.90;;;;;;4427124;32;20139;-63
2024/04/12 02:20:33;;;;;;;0.40;0.40;;;14.20;99.90;;;;;;4437610;32;20093;-63
2024/04/12 02:23:00;;;;;;;0.30;0.30;;;14.10;99.90;;;;;;4429672;32;20588;-62
2024/04/12 02:25:27;;;;;;;0.40;0.40;;;14.10;99.90;;;;;;4439449;32;20562;-62
2024/04/12 02:27:55;;;;;;;0.40;0.40;;;14.10;99.90;;;;;;4438616;32;20634;-63
2024/04/12 02:30:23;;;;;;;1.85;0.77;;;13.90;99.90;;;;;;4438125;32;20064;-63
2024/04/12 02:32:50;;;;;;;0.50;0.50;;;13.90;99.90;;;;;;4437171;32;20690;-62
2024/04/12 02:35:17;;;;;;;0.30;0.30;;;13.90;99.90;;;;;;4433825;32;20131;-62
2024/04/12 02:37:43;;;;;;;0.60;0.60;;;13.90;99.90;;;;;;4439980;32;20205;-63
2024/04/12 02:40:15;;;;;;;19.10;0.80;;;13.90;99.90;;;;;;4437156;32;20488;-62
2024/04/12 02:42:44;;;;;;;0.30;0.30;;;13.90;99.90;;;;;;4420877;32;20599;-63
2024/04/12 02:45:12;;;;;;;0.75;0.75;;;13.90;99.90;;;;;;4416804;32;20609;-63
2024/04/12 02:47:41;;;;;;;0.30;0.30;;;13.90;99.90;;;;;;4439399;32;20091;-62
2024/04/12 02:50:10;;;;;;;0.40;0.40;;;13.80;99.90;;;;;;4438945;32;20074;-63
2024/04/12 02:52:38;;;;;;;0.32;0.32;;;13.80;99.90;;;;;;4437328;32;20565;-62
2024/04/12 02:55:12;;;;;;;0.80;0.80;;;13.80;99.90;;;;;;4436266;32;20442;-63
2024/04/12 02:57:41;;;;;;;0.30;0.30;;;13.80;99.90;;;;;;4437689;32;20101;-62
2024/04/12 03:02:34;;;;;;;0.43;0.43;;;13.80;99.90;;;;;;4439304;32;20536;-63
2024/04/12 03:05:00;;;;;;;0.40;0.40;;;13.80;99.90;;;;;;4439722;32;20088;-63
2024/04/12 03:07:26;;;;;;;0.40;0.40;;;13.90;99.90;;;;;;4439640;32;21132;-63
2024/04/12 03:09:53;;;;;;;0.50;0.50;;;13.90;99.90;;;;;;4440064;32;20174;-62
2024/04/12 03:12:18;;;;;;;0.40;0.40;;;13.90;99.90;;;;;;4439242;32;20053;-62
2024/04/12 03:14:44;;;;;;;0.45;0.45;;;13.90;99.90;;;;;;4402955;32;20080;-64
2024/04/12 03:17:11;;;;;;;0.40;0.40;;;13.90;99.90;;;;;;4437940;32;20066;-63
2024/04/12 03:19:37;;;;;;;0.30;0.30;;;13.90;99.90;;;;;;4428460;32;20066;-62
2024/04/12 03:22:03;;;;;;;3.28;1.02;;;13.90;99.90;;;;;;4437994;32;20090;-62
2024/04/12 03:24:29;;;;;;;1.08;0.85;;;13.90;99.90;;;;;;4437976;32;20073;-62
2024/04/12 03:26:55;;;;;;;0.57;0.57;;;13.80;99.90;;;;;;4438250;32;20070;-62
2024/04/12 03:29:20;;;;;;;0.30;0.30;;;13.80;99.90;;;;;;4438771;32;20174;-62
2024/04/12 03:31:47;;;;;;;0.40;0.40;;;13.80;99.90;;;;;;4440748;32;20072;-63
2024/04/12 03:34:13;;;;;;;0.50;0.50;;;13.80;99.90;;;;;;4439129;32;20085;-62
2024/04/12 03:41:58;;;;;;;0.45;0.45;;;13.80;99.90;;;;;;4437855;32;20085;-62
2024/04/12 03:44:25;;;;;;;0.68;0.68;;;13.80;99.90;;;;;;4430057;32;20528;-63
2024/04/12 03:46:53;;;;;;;1.77;0.65;;;13.80;99.90;;;;;;4428378;32;20213;-64
2024/04/12 03:49:20;;;;;;;0.30;0.30;;;13.80;99.90;;;;;;4438419;32;20080;-64
2024/04/12 03:51:49;;;;;;;2.83;1.10;;;13.80;99.90;;;;;;4440556;32;20061;-63
2024/04/12 03:54:18;;;;;;;0.40;0.40;;;13.80;99.90;;;;;;4438727;32;20081;-63
2024/04/12 03:56:53;;;;;;;0.55;0.55;;;13.80;99.90;;;;;;4429277;32;20123;-63
2024/04/12 03:59:20;;;;;;;0.30;0.30;;;13.80;99.90;;;;;;4428719;32;20413;-64
2024/04/12 04:01:47;;;;;;;0.40;0.40;;;13.80;99.90;;;;;;4437576;32;20089;-63
2024/04/12 04:04:17;;;;;;;0.37;0.37;;;13.80;99.90;;;;;;4417871;32;20092;-64
2024/04/12 04:06:46;;;;;;;0.60;0.60;;;13.80;99.90;;;;;;4437634;32;20544;-64
2024/04/12 04:09:13;;;;;;;2.55;0.68;;;13.80;99.90;;;;;;4425231;32;20060;-63
2024/04/12 04:11:42;;;;;;;0.52;0.52;;;13.80;99.90;;;;;;4437084;32;20098;-64
2024/04/12 04:14:09;;;;;;;0.40;0.40;;;13.80;99.90;;;;;;4439005;32;20544;-63
2024/04/12 04:16:36;;;;;;;0.30;0.30;;;13.80;99.90;;;;;;4428538;32;20061;-63
2024/04/12 04:19:02;;;;;;;1.95;0.93;;;13.80;99.90;;;;;;4438028;32;20046;-63
2024/04/12 04:21:32;;;;;;;0.40;0.40;;;13.90;99.90;;;;;;4419983;32;20073;-62
2024/04/12 04:24:08;;;;;;;4.37;1.73;;;13.90;99.90;;;;;;4433740;32;20053;-62
2024/04/12 04:26:37;;;;;;;0.30;0.30;;;13.90;99.90;;;;;;4438293;32;20075;-62
2024/04/12 04:29:09;;;;;;;0.40;0.40;;;13.90;99.90;;;;;;4436258;32;20126;-63
2024/04/12 04:31:46;;;;;;;0.32;0.32;;;13.90;99.90;;;;;;4437976;32;20065;-63
2024/04/12 04:34:13;;;;;;;0.30;0.30;;;13.90;99.90;;;;;;4418366;32;20290;-62
2024/04/12 04:36:39;;;;;;;0.50;0.50;;;13.90;99.90;;;;;;4424707;32;20548;-62
2024/04/12 04:39:06;;;;;;;0.40;0.40;;;13.80;99.90;;;;;;4430171;32;20061;-62
2024/04/12 04:41:33;;;;;;;0.88;0.88;;;13.90;99.90;;;;;;4435938;32;20558;-62
2024/04/12 04:43:59;;;;;;;0.32;0.32;;;13.80;99.90;;;;;;4436443;32;20128;-64
2024/04/12 04:46:26;;;;;;;0.32;0.32;;;13.80;99.90;;;;;;4427314;32;20061;-62
2024/04/12 04:48:53;;;;;;;0.47;0.47;;;13.80;99.90;;;;;;4436831;32;20532;-62
2024/04/12 04:51:19;;;;;;;2.92;1.02;;;13.80;99.90;;;;;;4432552;32;20084;-63
2024/04/12 04:53:46;;;;;;;0.90;0.60;;;13.80;99.90;;;;;;4422988;32;20545;-64
2024/04/12 04:56:14;;;;;;;0.50;0.50;;;13.80;99.90;;;;;;4421433;32;20076;-63
2024/04/12 04:58:43;;;;;;;0.40;0.40;;;13.80;99.90;;;;;;4430313;32;20231;-63
2024/04/12 05:01:11;;;;;;;3.00;1.45;;;13.80;99.90;;;;;;4432147;32;20101;-63
2024/04/12 05:03:37;;;;;;;0.40;0.40;;;13.70;99.90;;;;;;4435383;32;20343;-63
2024/04/12 05:06:06;;;;;;;0.40;0.40;;;13.70;99.90;;;;;;4423451;32;20154;-64
2024/04/12 05:08:35;;;;;;;0.45;0.45;;;13.70;99.90;;;;;;4427184;32;20080;-64
2024/04/12 05:11:05;;;;;;;0.60;0.60;;;13.70;99.90;;;;;;4435899;32;20073;-64
2024/04/12 05:13:37;;;;;;;0.40;0.40;;;13.80;99.90;;;;;;4423933;32;21489;-63
2024/04/12 05:16:10;;;;;;;0.60;0.60;;;13.80;99.90;;;;;;4425578;32;20094;-63
2024/04/12 05:18:36;;;;;;;0.40;0.40;;;13.90;99.90;;;;;;4422819;32;20057;-63
2024/04/12 05:21:03;;;;;;;1.48;1.08;;;13.90;99.90;;;;;;4423501;32;20605;-64
2024/04/12 05:23:29;;;;;;;0.40;0.40;;;13.80;99.90;;;;;;4425463;32;20077;-64
2024/04/12 05:25:55;;;;;;;0.57;0.57;;;13.80;99.90;;;;;;4423653;32;20662;-63
2024/04/12 05:28:21;;;;;;;0.35;0.35;;;13.70;99.90;;;;;;4404652;32;20069;-64
2024/04/12 05:30:49;;;;;;;3.40;1.55;;;13.70;99.90;;;;;;4414226;32;20144;-63
2024/04/12 05:33:16;;;;;;;6.80;2.35;;;13.80;99.90;;;;;;4421161;32;20061;-64
2024/04/12 05:35:43;;;;;;;0.68;0.60;;;13.80;99.90;;;;;;4414558;32;20626;-63
2024/04/12 05:38:09;;;;;;;0.85;0.85;;;13.90;99.90;;;;;;4421840;32;20560;-63
2024/04/12 05:40:40;;;;;;;0.65;0.62;;;13.90;99.90;;;;;;4421389;32;20090;-63
2024/04/12 05:43:13;;;;;;;1.75;0.88;;;13.90;99.90;;;;;;4423991;32;20612;-63
2024/04/12 05:45:41;;;;;;;19.98;0.70;;;13.80;99.90;;;;;;4420033;32;20555;-64
2024/04/12 05:48:13;;;;;;;8.93;2.42;;;13.80;99.90;;;;;;4412117;32;20514;-64
2024/04/12 05:50:40;;;;;;;0.30;0.30;;;13.90;99.90;;;;;;4409691;32;20085;-63
2024/04/12 05:53:10;;;;;;;0.30;0.30;;;14.00;99.90;;;;;;4419338;32;20425;-64
2024/04/12 05:55:44;;;;;;;6.90;1.65;;;14.00;99.90;;;;;;4406913;32;20150;-63
2024/04/12 05:58:12;;;;;;;0.77;0.77;;;14.00;99.90;;;;;;4400614;32;20114;-63
2024/04/12 06:00:41;;;;;;;0.30;0.30;;;14.00;99.90;;;;;;4400831;32;20081;-64
2024/04/12 06:03:14;;;;;;;0.77;0.62;;;14.00;99.90;;;;;;4394344;32;20640;-64
2024/04/12 06:05:40;;;;;;;1.00;0.60;;;14.00;99.90;;;;;;4397600;32;20085;-64
2024/04/12 06:08:06;;;;;;;0.40;0.40;;;14.00;99.90;;;;;;4387183;32;20594;-64
2024/04/12 06:10:32;;;;;;;0.30;0.30;;;14.00;99.90;;;;;;4393459;32;20073;-64
2024/04/12 06:13:05;;;;;;;0.60;0.60;;;14.00;99.90;;;;;;4391031;32;20124;-62
2024/04/12 06:15:36;;;;;;;1.75;0.65;;;14.00;99.90;;;;;;4381100;32;20113;-64
2024/04/12 06:18:12;;;;;;;1.00;0.80;;;14.00;99.90;;;;;;4403982;32;20671;-63
2024/04/12 06:20:38;;;;;;;0.82;0.60;;;14.00;99.90;;;;;;4399510;32;20885;-63
2024/04/12 06:23:09;;;;;;;0.55;0.50;;;14.00;99.90;;;;;;4397775;32;20768;-63
2024/04/12 06:25:38;;;;;;;0.77;0.57;;;14.00;99.90;;;;;;4384522;32;20089;-64
2024/04/12 06:28:11;;;;;;;0.55;0.55;;;14.00;99.90;;;;;;4392048;32;20723;-65
2024/04/12 06:30:39;;;;;;;0.55;0.55;;;14.10;99.90;;;;;;4398998;32;20073;-63
2024/04/12 06:33:06;;;;;;;0.57;0.57;;;14.10;99.90;;;;;;4394318;32;21652;-64
2024/04/12 06:35:32;;;;;;;2.60;1.02;;;14.10;99.90;;;;;;4395859;32;20135;-64
2024/04/12 06:37:58;;;;;;;0.43;0.43;;;14.20;99.90;;;;;;4396427;32;20082;-64
2024/04/12 06:40:28;;;;;;;0.40;0.40;;;14.20;99.90;;;;;;4401919;32;20123;-64
2024/04/12 06:42:54;;;;;;;0.50;0.50;;;14.10;99.90;;;;;;4395697;32;20089;-64
2024/04/12 06:45:20;;;;;;;0.95;0.57;;;14.20;99.90;;;;;;4390497;32;21185;-63
2024/04/12 06:47:48;;;;;;;1.33;1.10;;;14.20;99.90;;;;;;4400160;32;20525;-64
2024/04/12 06:50:14;;;;;;;1.15;0.50;;;14.20;99.90;;;;;;4401000;32;20455;-63
2024/04/12 06:52:40;;;;;;;2.20;0.50;;;14.30;99.90;;;;;;4404329;32;20090;-63
2024/04/12 06:55:07;;;;;;;1.08;0.85;;;14.20;99.90;;;;;;4406779;32;20117;-63
2024/04/12 06:57:33;;;;;;;1.40;0.55;;;14.30;99.90;;;;;;4409681;32;20081;-63
2024/04/12 07:00:01;;;;;;;2.40;0.70;;;14.20;99.90;;;;;;4390825;32;20742;-64
2024/04/12 07:02:29;;;;;;;0.65;0.60;;;14.30;99.90;;;;;;4407873;32;20826;-64
2024/04/12 07:04:57;;;;;;;0.40;0.40;;;14.30;99.90;;;;;;4415266;32;20770;-64
2024/04/12 07:07:24;;;;;;;5.75;1.08;;;14.30;99.90;;;;;;4387079;32;20191;-65
2024/04/12 07:09:51;;;;;;;12.40;0.73;;;14.30;99.90;;;;;;4408620;32;20073;-63
2024/04/12 07:12:19;;;;;;;0.40;0.40;;;14.30;99.90;;;;;;4409597;32;20127;-63
2024/04/12 07:14:46;;;;;;;0.62;0.62;;;14.30;99.90;;;;;;4409849;32;20146;-63
2024/04/12 07:17:28;;;;;;;0.88;0.88;;;14.40;99.90;;;;;;4409876;32;20107;-63
2024/04/12 07:19:57;;;;;;;0.30;0.30;;;14.40;99.90;;;;;;4413282;32;20117;-63
2024/04/12 07:22:27;;;;;;;0.40;0.40;;;14.40;99.90;;;;;;4410959;32;20672;-63
2024/04/12 07:24:54;;;;;;;0.57;0.57;;;14.50;99.90;;;;;;4401349;32;20501;-63
2024/04/12 07:27:22;;;;;;;4.00;1.73;;;14.50;99.90;;;;;;4406600;32;21558;-63
2024/04/12 07:29:49;;;;;;;0.50;0.50;;;14.50;99.90;;;;;;4415781;32;20119;-63
2024/04/12 07:32:17;;;;;;;0.40;0.40;;;14.50;99.90;;;;;;4381865;32;20163;-63
2024/04/12 07:34:48;;;;;;;0.45;0.45;;;14.50;99.90;;;;;;4408384;32;20097;-63
2024/04/12 07:37:26;;;;;;;0.30;0.30;;;14.60;99.90;;;;;;4406289;32;20717;-63
2024/04/12 07:40:15;;;;;;;0.50;0.50;;;14.70;99.90;;;;;;4403005;32;20152;-63
2024/04/12 07:42:45;;;;;;;3.12;0.88;;;14.70;99.90;;;;;;4398639;32;20093;-63
2024/04/12 07:45:20;;;;;;;0.90;0.82;;;14.80;99.90;;;;;;4409317;32;20262;-64
2024/04/12 07:47:54;;;;;;;1.55;0.70;;;14.90;99.90;;;;;;4403033;32;20268;-63
2024/04/12 07:50:28;;;;;;;3.78;0.70;;;15.10;99.90;;;;;;4380482;32;20120;-63
2024/04/12 07:52:59;;;;;;;0.32;0.32;;;15.20;99.90;;;;;;4384414;32;21522;-63
2024/04/12 07:55:24;;;;;;;6.62;1.62;;;15.20;99.90;;;;;;4382053;32;20812;-63
2024/04/12 07:57:52;;;;;;;0.57;0.57;;;15.30;99.90;;;;;;4387527;32;20096;-63
2024/04/12 08:00:35;;;;;;;0.40;0.40;;;15.20;99.90;;;;;;4385413;32;20092;-63
2024/04/12 08:03:06;;;;;;;0.60;0.60;;;15.30;99.90;;;;;;4391438;32;20168;-63
2024/04/12 08:08:27;;;;;;;4.43;1.37;;;15.50;99.90;;;;;;4391838;32;20074;-63
2024/04/12 08:10:56;;;;;;;0.45;0.45;;;15.40;99.90;;;;;;4412544;32;20637;-64
2024/04/12 08:13:28;;;;;;;1.80;0.57;;;15.40;99.90;;;;;;4408846;32;20642;-64
2024/04/12 08:15:59;;;;;;;0.45;0.45;;;15.40;99.90;;;;;;4409195;32;20086;-64
2024/04/12 08:18:26;;;;;;;0.40;0.40;;;15.40;99.90;;;;;;4398119;32;20492;-64
2024/04/12 08:21:01;;;;;;;0.50;0.50;;;15.40;99.90;;;;;;4389809;32;20111;-64
2024/04/12 08:23:29;;;;;;;2.47;0.60;;;15.50;99.90;;;;;;4392791;32;20448;-64
2024/04/12 08:25:58;;;;;;;0.52;0.52;;;15.50;99.90;;;;;;4413547;32;20073;-65
2024/04/12 08:28:24;;;;;;;0.50;0.50;;;15.40;99.90;;;;;;4402772;32;20089;-62
2024/04/12 08:30:53;;;;;;;2.80;1.17;;;15.40;99.90;;;;;;4407400;32;20896;-63
2024/04/12 08:33:24;;;;;;;1.10;0.85;;;15.40;99.90;;;;;;4402279;32;20457;-64
2024/04/12 08:35:55;;;;;;;;;;;15.40;99.90;;;;;;4404235;32;20671;-64
2024/04/12 08:38:22;;;;;;;2.25;0.85;;;15.50;99.90;;;;;;4382486;32;20628;-63
2024/04/12 08:40:52;;;;;;;1.00;0.80;;;15.50;99.90;;;;;;4407534;32;20077;-63
2024/04/12 08:43:19;;;;;;;0.57;0.57;;;15.50;99.90;;;;;;4409028;32;20138;-64
2024/04/12 08:45:47;;;;;;;0.82;0.70;;;15.50;99.90;;;;;;4410623;32;20081;-64
2024/04/12 08:48:16;;;;;;;0.40;0.40;;;15.60;99.90;;;;;;4401809;32;20080;-64
2024/04/12 08:50:48;;;;;;;0.95;0.68;;;15.70;99.90;;;;;;4402963;32;20848;-65
2024/04/12 08:53:20;;;;;;;0.73;0.73;;;15.70;99.90;;;;;;4393789;32;20101;-64
2024/04/12 08:55:46;;;;;;;0.40;0.40;;;15.70;99.90;;;;;;4401899;32;20811;-64
2024/04/12 08:58:19;;;;;;;0.37;0.37;;;15.70;99.90;;;;;;4404796;32;20077;-64
2024/04/12 09:00:46;;;;;;;1.90;0.70;;;15.80;99.90;;;;;;4394162;32;20132;-63
2024/04/12 09:03:24;;;;;;;1.20;0.82;;;15.70;99.90;;;;;;4405420;32;21084;-64
2024/04/12 09:05:52;;;;;;;0.70;0.70;;;15.90;99.90;;;;;;4407527;32;21484;-64
2024/04/12 09:08:18;;;;;;;1.30;0.80;;;16.00;99.90;;;;;;4407648;32;20558;-63
2024/04/12 09:10:44;;;;;;;0.73;0.73;;;16.00;99.90;;;;;;4394176;32;20493;-64
2024/04/12 09:13:14;;;;;;;6.50;0.60;;;16.00;99.90;;;;;;4383629;32;20825;-64
2024/04/12 09:15:45;;;;;;;1.07;0.70;;;16.10;99.90;;;;;;4403463;32;20100;-64
2024/04/12 09:18:15;;;;;;;1.90;0.68;;;16.20;99.90;;;;;;4404212;32;20097;-64
2024/04/12 09:20:52;;;;;;;1.10;0.77;;;16.20;99.90;;;;;;4399979;32;20207;-63
2024/04/12 09:23:19;;;;;;;0.40;0.40;;;16.20;99.90;;;;;;4388159;32;20440;-64
2024/04/12 09:25:54;;;;;;;1.52;1.40;;;16.20;99.90;;;;;;4378692;32;20080;-64
2024/04/12 09:28:22;;;;;;;0.45;0.45;;;16.20;99.90;;;;;;4390720;32;20098;-64
2024/04/12 09:32:53;;;;;;;0.90;0.90;;;16.20;99.90;;;;;;4387098;32;20090;-64
2024/04/12 09:33:34;;;;;;;3.15;0.60;;;16.30;99.90;;;;;;4387527;32;20552;-64
2024/04/12 09:36:05;;;;;;;1.40;1.05;;;16.40;99.90;;;;;;4403681;32;20168;-64
2024/04/12 09:38:33;;;;;;;0.50;0.50;;;16.40;99.90;;;;;;4413780;32;20613;-64
2024/04/12 09:41:12;;;;;;;0.98;0.93;;;16.30;99.90;;;;;;4402782;32;20187;-64
2024/04/12 09:43:47;;;;;;;0.30;0.30;;;16.30;99.90;;;;;;4411106;32;20105;-64
2024/04/12 09:46:22;;;;;;;2.30;1.42;;;16.30;99.90;;;;;;4413875;32;20910;-64
2024/04/12 10:37:23;;;;;;;1.75;1.10;;;16.40;99.90;;;;;;4404869;32;20350;-63
2024/04/12 10:39:11;;;;;;;1.50;1.25;;;16.60;99.90;;;;;;4407308;32;20586;-63
2024/04/12 10:41:38;;;;;;;0.40;0.40;;;16.60;99.90;;;;;;4408836;32;20113;-64
2024/04/12 10:44:05;;;;;;;0.32;0.32;;;16.70;99.90;;;;;;4423175;32;20968;-64
2024/04/12 10:46:33;;;;;;;0.50;0.50;;;16.80;99.90;;;;;;4420618;32;20884;-64
2024/04/12 10:49:00;;;;;;;0.50;0.50;;;16.80;99.90;;;;;;4406702;32;20396;-64
2024/04/12 10:51:26;;;;;;;5.00;0.62;;;16.80;99.90;;;;;;4414968;32;20093;-63
2024/04/12 10:53:52;;;;;;;0.60;0.60;;;16.80;99.90;;;;;;4425796;32;20078;-63
2024/04/12 10:56:18;;;;;;;0.47;0.47;;;16.80;99.90;;;;;;4403515;32;20742;-62
2024/04/12 10:58:51;;;;;;;5.20;0.65;;;16.70;99.90;;;;;;4417446;32;20783;-62
2024/04/12 11:01:22;;;;;;;1.12;0.88;;;16.70;99.90;;;;;;4423040;32;20076;-63
2024/04/12 11:03:56;;;;;;;0.75;0.65;;;16.80;99.90;;;;;;4410364;32;20085;-63
2024/04/12 11:06:30;;;;;;;0.43;0.43;;;16.90;99.90;;;;;;4417372;32;20102;-63
2024/04/12 11:08:58;;;;;;;0.52;0.52;;;17.00;99.90;;;;;;4413679;32;20362;-62
2024/04/12 11:11:31;;;;;;;0.37;0.37;;;17.20;99.90;;;;;;4419008;32;20141;-62
2024/04/12 11:13:59;;;;;;;0.45;0.45;;;17.30;99.90;;;;;;4419205;32;20076;-62
2024/04/12 11:31:24;;;;;;;2.10;0.80;;;18.20;99.90;;;;;;4406657;32;20073;-62
2024/04/12 11:33:04;;;;;;;0.50;0.50;;;18.20;99.90;;;;;;4402078;32;20092;-63
2024/04/12 11:35:31;;;;;;;0.37;0.37;;;18.30;99.90;;;;;;4417693;32;20092;-63
2024/04/12 11:37:57;;;;;;;0.50;0.50;;;18.50;99.90;;;;;;4413092;32;20155;-63
2024/04/12 11:40:25;;;;;;;0.40;0.40;;;18.90;99.90;;;;;;4400404;32;20532;-63
2024/04/12 11:42:56;;;;;;;0.60;0.60;;;19.20;99.90;;;;;;4410384;32;20150;-64
2024/04/12 11:45:25;;;;;;;1.08;0.68;;;19.20;99.90;;;;;;4405315;32;20069;-63
2024/04/12 11:47:51;;;;;;;0.40;0.40;;;19.10;99.90;;;;;;4408135;32;20461;-63
2024/04/12 11:50:17;;;;;;;0.40;0.40;;;19.00;99.90;;;;;;4405448;32;20678;-64
2024/04/12 11:52:43;;;;;;;0.40;0.40;;;18.90;99.90;;;;;;4406633;32;20156;-64
2024/04/12 11:55:12;;;;;;;1.83;0.90;;;18.70;99.90;;;;;;4413808;32;147078;-64
2024/04/12 11:57:41;;;;;;;0.75;0.60;;;18.70;99.90;;;;;;4426252;32;20077;-64
2024/04/12 12:02:37;;;;;;;0.80;0.47;;;19.20;99.90;;;;;;4409850;32;20088;-65
2024/04/12 12:05:06;;;;;;;0.37;0.37;;;19.60;99.90;;;;;;4412687;32;20216;-64
2024/04/12 12:07:32;;;;;;;0.50;0.50;;;20.20;99.90;;;;;;4417726;32;20123;-64
2024/04/12 12:09:57;;;;;;;0.40;0.40;;;20.80;99.90;;;;;;4419417;32;20184;-63
2024/04/12 12:12:26;;;;;;;0.80;0.70;;;21.10;99.90;;;;;;4426176;32;20544;-63
2024/04/12 12:14:52;;;;;;;0.30;0.30;;;21.10;99.90;;;;;;4412432;32;20480;-63
2024/04/12 12:17:18;;;;;;;0.82;0.52;;;20.70;99.90;;;;;;4413486;32;20073;-63
2024/04/12 12:19:47;;;;;;;0.30;0.30;;;20.80;99.90;;;;;;4411434;32;20077;-64
2024/04/12 12:22:14;;;;;;;0.28;0.28;;;21.40;99.90;;;;;;4425819;32;20450;-65
2024/04/12 12:24:39;;;;;;;1.00;0.60;;;22.20;99.90;;;;;;4426788;32;20098;-64
2024/04/12 12:27:08;;;;;;;0.30;0.30;;;22.50;99.90;;;;;;4425956;32;20074;-65
2024/04/12 12:29:42;;;;;;;0.10;0.10;;;22.70;99.90;;;;;;4425860;32;20078;-65
2024/04/12 12:32:08;;;;;;;2.58;1.23;;;22.80;99.90;;;;;;4434385;32;20124;-64
2024/04/12 12:34:34;;;;;;;0.30;0.30;;;22.60;99.90;;;;;;4419582;32;20445;-65
2024/04/12 12:37:01;;;;;;;0.30;0.30;;;22.70;99.90;;;;;;4432333;32;20077;-65
2024/04/12 12:39:31;;;;;;;0.80;0.40;;;23.00;99.90;;;;;;4427856;32;20484;-65
2024/04/12 12:41:58;;;;;;;0.23;0.23;;;23.00;99.90;;;;;;4411355;32;20080;-65
2024/04/12 12:44:25;;;;;;;0.32;0.32;;;22.80;99.90;;;;;;4413686;32;20057;-65
2024/04/12 12:46:50;;;;;;;0.20;0.20;;;22.70;99.90;;;;;;4422608;32;20097;-65
2024/04/12 12:49:19;;;;;;;1.23;0.40;;;22.60;99.90;;;;;;4413719;32;20090;-65
2024/04/12 12:51:47;;;;;;;0.62;0.37;;;22.60;99.90;;;;;;4418070;32;20140;-65
2024/04/12 12:54:13;;;;;;;0.30;0.30;;;22.80;99.90;;;;;;4424328;32;20117;-65
2024/04/12 12:56:40;;;;;;;0.20;0.20;;;23.10;99.90;;;;;;4422558;32;20144;-65
2024/04/12 12:59:06;;;;;;;0.37;0.37;;;22.90;99.90;;;;;;4422612;32;20073;-65
2024/04/12 13:01:35;;;;;;;0.40;0.37;;;22.50;99.90;;;;;;4425589;32;20153;-65
2024/04/12 13:04:04;;;;;;;1.45;0.70;;;22.40;99.90;;;;;;4420896;32;20551;-65
2024/04/12 13:06:34;;;;;;;1.17;0.77;;;22.70;99.90;;;;;;4421212;32;20096;-65
2024/04/12 13:09:02;;;;;;;0.32;0.32;;;23.00;99.90;;;;;;4417232;32;20282;-65
2024/04/12 13:11:28;;;;;;;0.40;0.40;;;23.10;99.90;;;;;;4419530;32;20560;-64
2024/04/12 13:13:53;;;;;;;0.55;0.37;;;22.90;99.90;;;;;;4422479;32;20074;-63
2024/04/12 13:16:19;;;;;;;0.30;0.30;;;22.70;99.90;;;;;;4423636;32;20113;-63
2024/04/12 13:18:45;;;;;;;0.85;0.30;;;22.70;99.90;;;;;;4424484;32;20517;-63
2024/04/12 13:21:12;;;;;;;0.30;0.30;;;22.40;99.90;;;;;;4424090;32;20074;-65
2024/04/12 13:23:40;;;;;;;0.40;0.37;;;22.10;99.90;;;;;;4428398;32;20065;-65
2024/04/12 13:26:06;;;;;;;0.50;0.50;;;22.00;99.90;;;;;;4424941;32;20077;-65
2024/04/12 13:28:33;;;;;;;0.52;0.52;;;22.00;99.90;;;;;;4415570;32;20061;-65
2024/04/12 13:30:58;;;;;;;0.30;0.30;;;22.10;99.90;;;;;;4428225;32;20119;-64
2024/04/12 13:33:24;;;;;;;0.90;0.82;;;22.00;99.90;;;;;;4430964;32;20061;-65
2024/04/12 13:35:52;;;;;;;0.43;0.43;;;21.90;99.90;;;;;;4428669;32;20190;-65
2024/04/12 13:38:18;;;;;;;1.17;0.68;;;21.60;99.90;;;;;;4431104;32;21123;-65
2024/04/12 13:40:47;;;;;;;0.30;0.30;;;21.40;99.90;;;;;;4424941;32;20511;-65
2024/04/12 13:43:14;;;;;;;0.40;0.40;;;21.20;99.90;;;;;;4429573;32;20223;-63
2024/04/12 13:51:05;;;;;;;0.30;0.30;;;21.00;99.90;;;;;;4415565;32;20094;-64
2024/04/12 13:51:19;;;;;;;1.00;0.37;;;21.10;99.90;;;;;;4428042;32;21280;-65
2024/04/12 13:53:45;;;;;;;0.20;0.20;;;21.10;99.90;;;;;;4425593;32;20594;-64
2024/04/12 13:56:27;;;;;;;0.40;0.40;;;21.00;99.90;;;;;;4420798;32;20457;-65
2024/04/12 13:58:58;;;;;;;0.60;0.60;;;21.10;99.90;;;;;;4423379;32;20081;-64
2024/04/12 14:01:26;;;;;;;0.57;0.57;;;21.20;99.90;;;;;;4407346;32;20074;-64
2024/04/12 14:03:57;;;;;;;0.30;0.30;;;21.30;99.90;;;;;;4423655;32;20544;-64
2024/04/12 14:06:23;;;;;;;9.05;0.65;;;21.50;99.90;;;;;;4409158;32;20170;-64
2024/04/12 14:08:51;;;;;;;1.20;0.45;;;21.60;99.90;;;;;;4421935;32;20431;-64
2024/04/12 14:11:16;;;;;;;2.05;1.05;;;21.80;99.90;;;;;;4407844;32;20134;-64
2024/04/12 14:13:44;;;;;;;0.82;0.70;;;22.00;99.90;;;;;;4422731;32;20128;-65